»·PEaware :: N283PU L35-KLAS

N283PU :: L35-KLAS

FLIGHT INFORMATION

Flight Status: Arrived
Operator: Privately registered:
United States
More flights under this callsign
Pilot: Anonymous 18083 (18083)
Aircraft: DIAMOND DA-42 TWINSTAR
(DA42)
More flights by this aircraft type
Origin: L35 Big Bear City
United States
Destination: KLAS McCarran Intl
United States
More flights between these airports :: More routes between these airports
Route: +OKACO V386 SOGGI HEC CRESO4
File this flight plan on PilotEdge
Remarks: Sample flight plan
Altitude:
(Current/Filed)
10,000ft
Speed:
(Current/Filed)
150kts
Departed: 25-Mar-18 05:37 PM
Arrived: 25-Mar-18 06:44 PM
Distance/Time
Traveled:
137nm/1:06
Distance/Time
To Go:
Arrived

Flight Plot

Page will automatically refresh every two minutes.

Flight plan parsing failed; only flown route is shown


Map Options




Map Legend


Flown Route
Filed Route
Departure Airport
Arrival Airport
Navaid (VOR, NDB)
Fix

Horizontal Profiles

Position Reports

Time Latitude Longitude Heading Altitude Ground
Speed
25-Mar-18 17:22 34.262192 -116.853979 86 6751ft 0kts
25-Mar-18 17:23 34.262197 -116.853939 78 6751ft 0kts
25-Mar-18 17:24 34.262197 -116.853939 78 6751ft 0kts
25-Mar-18 17:25 34.262197 -116.853939 78 6751ft 0kts
25-Mar-18 17:26 34.262197 -116.853939 78 6751ft 0kts
25-Mar-18 17:27 34.262197 -116.853939 78 6751ft 0kts
25-Mar-18 17:28 34.263143 -116.853605 32 6751ft 6kts
25-Mar-18 17:29 34.263285 -116.850822 90 6751ft 8kts
25-Mar-18 17:30 34.263289 -116.847940 88 6751ft 8kts
25-Mar-18 17:31 34.263391 -116.846482 30 6751ft 0kts
25-Mar-18 17:32 34.263391 -116.846482 30 6751ft 0kts
25-Mar-18 17:33 34.263391 -116.846482 30 6751ft 0kts
25-Mar-18 17:34 34.263391 -116.846482 30 6751ft 0kts
25-Mar-18 17:35 34.263562 -116.846433 357 6751ft 7kts
25-Mar-18 17:36 34.263508 -116.862674 264 7122ft 81kts
25-Mar-18 17:37 34.253319 -116.875629 96 8116ft 101kts
25-Mar-18 17:38 34.256706 -116.841714 86 9159ft 102kts
25-Mar-18 17:39 34.256465 -116.806979 91 10128ft 104kts
25-Mar-18 17:40 34.255866 -116.772318 91 11070ft 103kts
25-Mar-18 17:41 34.256067 -116.737934 86 11972ft 102kts
25-Mar-18 17:42 34.257895 -116.703333 86 12837ft 105kts
25-Mar-18 17:43 34.259891 -116.667812 86 13657ft 108kts
25-Mar-18 17:44 34.261967 -116.632939 86 14401ft 110kts
25-Mar-18 17:45 34.264647 -116.595715 76 15133ft 113kts
25-Mar-18 17:46 34.287783 -116.591547 330 15837ft 95kts
25-Mar-18 17:47 34.312683 -116.602323 327 16542ft 94kts
25-Mar-18 17:48 34.338958 -116.613071 330 16981ft 117kts
25-Mar-18 17:49 34.374934 -116.627496 333 16971ft 148kts
25-Mar-18 17:50 34.415525 -116.643230 334 16972ft 156kts
25-Mar-18 17:51 34.457221 -116.659458 334 16971ft 158kts
25-Mar-18 17:52 34.500632 -116.658816 15 16973ft 173kts
25-Mar-18 17:53 34.544348 -116.633247 21 16971ft 175kts
25-Mar-18 17:54 34.587046 -116.604720 22 16974ft 175kts
25-Mar-18 17:55 34.629788 -116.576054 23 16975ft 175kts
25-Mar-18 17:56 34.672442 -116.547369 22 16975ft 176kts
25-Mar-18 17:57 34.714954 -116.518654 23 17012ft 175kts
25-Mar-18 17:58 34.757463 -116.489902 23 17011ft 176kts
25-Mar-18 17:59 34.800312 -116.461097 22 17011ft 176kts
25-Mar-18 18:00 34.844282 -116.442635 351 17013ft 165kts
25-Mar-18 18:01 34.890326 -116.443331 351 17011ft 165kts
25-Mar-18 18:02 34.936183 -116.444281 351 17013ft 164kts
25-Mar-18 18:03 34.971662 -116.419403 72 17022ft 183kts
25-Mar-18 18:04 34.983956 -116.369807 71 17017ft 183kts
25-Mar-18 18:05 35.000324 -116.301675 71 17007ft 182kts
25-Mar-18 18:06 35.011883 -116.253122 71 17008ft 181kts
25-Mar-18 18:07 35.025845 -116.193911 71 17008ft 181kts
25-Mar-18 18:08 35.041878 -116.125151 71 17007ft 181kts
25-Mar-18 18:09 35.053340 -116.075758 71 17007ft 181kts
25-Mar-18 18:10 35.067805 -116.017127 54 16991ft 179kts
25-Mar-18 18:11 35.113668 -115.990532 23 15910ft 202kts
25-Mar-18 18:12 35.159508 -115.948784 38 14728ft 208kts
25-Mar-18 18:13 35.195750 -115.906400 40 13507ft 166kts
25-Mar-18 18:14 35.227709 -115.866755 43 12297ft 162kts
25-Mar-18 18:15 35.258497 -115.827522 43 11104ft 158kts
25-Mar-18 18:16 35.288545 -115.788861 44 10062ft 151kts
25-Mar-18 18:17 35.317466 -115.751750 43 10051ft 156kts
25-Mar-18 18:18 35.347613 -115.712543 44 10038ft 158kts
25-Mar-18 18:19 35.377909 -115.673366 43 10028ft 158kts
25-Mar-18 18:20 35.408082 -115.634292 44 10028ft 157kts
25-Mar-18 18:21 35.438170 -115.595344 43 10028ft 157kts
25-Mar-18 18:22 35.468334 -115.556223 43 10028ft 158kts
25-Mar-18 18:23 35.499524 -115.515879 43 9983ft 168kts
25-Mar-18 18:24 35.534639 -115.470261 44 9073ft 191kts
25-Mar-18 18:25 35.571217 -115.422106 44 8178ft 193kts
25-Mar-18 18:26 35.607954 -115.374146 44 7305ft 194kts
25-Mar-18 18:27 35.643104 -115.328136 45 7010ft 177kts
25-Mar-18 18:28 35.675974 -115.284864 45 7013ft 172kts
25-Mar-18 18:29 35.708686 -115.241950 45 7014ft 171kts
25-Mar-18 18:30 35.741169 -115.199334 45 7014ft 171kts
25-Mar-18 18:31 35.774338 -115.157190 28 7007ft 171kts
25-Mar-18 18:32 35.819440 -115.141796 12 7012ft 169kts
25-Mar-18 18:33 35.864696 -115.126514 11 7012ft 169kts
25-Mar-18 18:34 35.910225 -115.112764 0 6995ft 168kts
25-Mar-18 18:35 35.955903 -115.112463 352 6585ft 161kts
25-Mar-18 18:36 36.000897 -115.113729 355 5948ft 163kts
25-Mar-18 18:37 36.045378 -115.114510 352 5278ft 150kts
25-Mar-18 18:38 36.086816 -115.116283 3 4526ft 140kts
25-Mar-18 18:39 36.118813 -115.113816 354 4354ft 104kts
25-Mar-18 18:40 36.126331 -115.138197 237 3495ft 88kts
25-Mar-18 18:41 36.108359 -115.151244 207 2696ft 74kts
25-Mar-18 18:42 36.091251 -115.161177 207 2116ft 46kts
25-Mar-18 18:43 36.089324 -115.163411 287 2127ft 0kts
25-Mar-18 18:44 36.089419 -115.164836 259 2133ft 8kts
25-Mar-18 18:45 36.089285 -115.166098 171 2136ft 0kts
25-Mar-18 18:46 36.089285 -115.166098 171 2136ft 0kts

Navigation Log

Ident Type
Flight plan parsing failed, navigation log unavailable